KEQA

El Dorado / Captain Jack Thomas Memorial Airport

El Dorado, Kansas, USA
METAR KEQA 161835Z AUTO 09006KT 4SM BR OVC004 03/02 A3008 RMK AO2
Observed Flight Rules
Jan-16 @ 18:35 UTC (18 minutes ago) Instrument Flight Rules
Wind Visibility Clouds Conditions
90° at 6 knots 4 miles
  • Overcast at 400' AGL
  • Mist
Temperatures Readings
Current 3°C / 37°F
Dewpoint 2°C / 36°F
Humidity 93%
Altimeter 30.08" Hg
Pressure 1018.62 hPa
Elevation 420
METAR KEQA 161835Z AUTO 09006KT 4SM BR OVC004 03/02 A3008 RMK AO2
Observed Flight Rules
Jan-16 @ 18:35 UTC
(18 minutes ago)
LIFR
Wind Visibility
90° at 6 knots 4 miles
Clouds
  • Overcast at 400' AGL
Conditions
  • Mist
Temperature Dewpoint
3°C / 37°F 2°C / 36°F
Humidity Altimeter Pressure
93% 30.08" Hg 1018.62 hPa